• Join FlightAware (Why Join?)
  • Login
  • US Flag 
12:54AM EST


 

Airport Tracker/Info


-or-


 

Live Flight TrackerFlight Track Log ✈ LXJ437 ✈ 24-Jun-2013 ✈ KMSP - KDPA

Flight Track Log - Related Links

Times and Time Zones

All times are in EDT time to prevent confusion due to time zone crossing. See the LXJ437 flight status page for this flight to view local times or setup timezone preferences in your user account.

Time Position Orientation Groundspeed Altitude Reporting Facility
EDT Latitude Longitude Course Direction KTS MPH feet Rate Location/Type
10:21AM 44.8500 -93.2000 121° Southeast 205 236 3,200  Level Minneapolis TRACON
10:22AM 44.8050 -93.0928 121° Southeast 287 330 6,700 3,300 Climbing Minneapolis Center
10:23AM 44.7644 -92.9881 119° Southeast 301 346 10,500 3,720 Climbing Minneapolis Center
10:24AM 44.7322 -92.8586 109° East 349 402 14,400 3,600 Climbing Minneapolis Center
10:25AM 44.6936 -92.7189 111° Southeast 382 440 18,600 3,600 Climbing Minneapolis Center
10:26AM 44.6378 -92.5097 110° East 414 476 22,600 3,120 Climbing Minneapolis Center
10:27AM 44.5925 -92.3456 111° Southeast 446 513 25,100 2,160 Climbing Minneapolis Center
10:28AM 44.5428 -92.1786 113° Southeast 461 531 27,100 1,680 Climbing Minneapolis Center
10:29AM 44.4642 -92.0322 127° Southeast 469 540 28,900 840 Climbing Minneapolis Center
10:30AM 44.3692 -91.8481 126° Southeast 486 559 29,000  Climbing Minneapolis Center
10:32AM 44.3036 -91.6806 119° Southeast 494 568 29,000  Level Minneapolis Center
10:33AM 44.2411 -91.5119 117° Southeast 492 566 29,000  Level Minneapolis Center
10:34AM 44.1639 -91.3122 118° Southeast 490 564 29,000  Level Minneapolis Center
10:35AM 44.0931 -91.1278 118° Southeast 490 564 29,000  Level Minneapolis Center
10:36AM 44.0156 -90.9281 118° Southeast 491 565 29,000  Level Minneapolis Center
10:37AM 43.9500 -90.7625 119° Southeast 492 566 29,000  Level Minneapolis Center
10:38AM 43.8722 -90.5497 117° Southeast 496 571 29,000  Level Minneapolis Center
10:39AM 43.8206 -90.3869 114° Southeast 495 570 29,000  Level Chicago Center
10:40AM 43.7611 -90.1992 114° Southeast 499 574 29,000  Level Minneapolis Center
10:41AM 43.7036 -90.0267 115° Southeast 497 572 29,000  Level Chicago Center
10:41AM 43.7036 -90.0267 115° Southeast 496 571 29,000 -540 Level Minneapolis Center
10:42AM 43.6456 -89.8553 115° Southeast 493 567 28,500 -1,020 Descending Chicago Center
10:43AM 43.5897 -89.6847 114° Southeast 489 563 27,000 -1,500 Descending Chicago Center
10:44AM 43.5350 -89.5192 114° Southeast 480 552 25,500 -1,620 Descending Chicago Center
10:45AM 43.4708 -89.3219 114° Southeast 482 555 23,700 -1,620 Descending Chicago Center
10:46AM 43.4169 -89.1628 115° Southeast 464 534 22,200 -1,680 Descending Chicago Center
10:47AM 43.3661 -89.0131 115° Southeast 439 505 20,300 -1,920 Descending Chicago Center
10:48AM 43.3194 -88.8742 115° Southeast 407 468 18,300 -2,040 Descending Chicago Center
10:49AM 43.2742 -88.7422 115° Southeast 389 448 16,100 -2,400 Descending Chicago Center
10:50AM 43.2031 -88.6122 127° Southeast 380 437 13,400 -1,620 Descending Chicago Center
10:51AM 43.1253 -88.5358 144° Southeast 349 402 12,800 -1,020 Descending Chicago Center
10:53AM 43.0558 -88.4650 143° Southeast 318 366 11,400 -1,740 Descending Chicago Center
10:54AM 42.9878 -88.3972 144° Southeast 306 352 9,300 -1,980 Descending Chicago Center
10:55AM 42.9178 -88.3247 143° Southeast 313 360 7,400 -1,800 Descending Chicago Center
10:56AM 42.8425 -88.2431 141° Southeast 300 345 5,700 -1,620 Descending Chicago Center
10:57AM 42.7775 -88.1706 141° Southeast 302 348 4,100 -840 Descending Chicago Center
10:58AM 42.7103 -88.1161 149° Southeast 289 333 4,000 -60 Descending Chicago Center
10:59AM 42.6378 -88.1050 174° South 261 300 4,000  Level Chicago Center
11:00AM 42.5700 -88.0908 171° South 249 287 4,000  Level Chicago Center
11:01AM 42.5000 -88.0761 171° South 252 290 4,000 -300 Level Chicago Center
11:02AM 42.4194 -88.0764 180° South 245 282 3,400 -540 Descending Chicago Center
11:03AM 42.3575 -88.1036 198° South 236 272 3,000 -240 Descending Chicago Center
11:04AM 42.3078 -88.1208 194° South 202 232 3,000  Level Chicago Center
11:05AM 42.3025 -88.1706 262° West 166 191 3,000  Level Chicago Center
11:06AM 42.2769 -88.2194 235° Southwest 167 192 3,000  Level Chicago Center
11:07AM 42.2367 -88.2278 189° South 160 184 3,000  Level Chicago Center
11:08AM 42.1847 -88.2133 168° South 161 185 3,000  Level Chicago Center
11:09AM 42.1442 -88.1981 164° South 156 180 3,000  Level Chicago Center
11:10AM 42.1036 -88.1861 168° South 153 176 3,000 -300 Level Chicago Center
11:11AM 42.0600 -88.1994 193° South 160 184 2,500 -300 Descending Chicago Center
11:12AM 42.0158 -88.2136 193° South 163 188 2,500 -420 Level Chicago Center
11:13AM 41.9631 -88.2314 194° South 163 188 1,700 -780 Descending Chicago Center
11:14AM 41.9225 -88.2453 194° South 159 183 1,000 -720 Descending Chicago Center
11:16AM 41.9071 -88.2480 217° Southwest  Level Estimated